createdAt,value
2023-04-23T00:00:46.564Z,12.19
2023-04-23T00:03:15.098Z,12.16
2023-04-23T00:05:43.263Z,12.13
2023-04-23T00:08:11.506Z,12.10
2023-04-23T00:10:39.428Z,12.07
2023-04-23T00:13:07.874Z,12.04
2023-04-23T00:15:35.989Z,12.01
2023-04-23T00:18:04.096Z,11.99
2023-04-23T00:20:32.497Z,11.97
2023-04-23T00:23:01.373Z,11.94
2023-04-23T00:25:29.823Z,11.91
2023-04-23T00:27:58.226Z,11.88
2023-04-23T00:30:26.192Z,11.85
2023-04-23T00:32:54.308Z,11.82
2023-04-23T00:35:22.260Z,11.79
2023-04-23T00:37:50.920Z,11.77
2023-04-23T00:40:18.782Z,11.75
2023-04-23T00:42:47.417Z,11.71
2023-04-23T00:45:15.710Z,11.68
2023-04-23T00:47:43.983Z,11.65
2023-04-23T00:50:13.378Z,11.63
2023-04-23T00:52:41.703Z,11.60
2023-04-23T00:55:10.295Z,11.58
2023-04-23T00:57:38.453Z,11.57
2023-04-23T01:00:07.858Z,11.55
2023-04-23T01:02:36.987Z,11.54
2023-04-23T01:05:05.869Z,11.52
2023-04-23T01:07:38.566Z,11.50
2023-04-23T01:10:07.373Z,11.49
2023-04-23T01:12:35.921Z,11.47
2023-04-23T01:15:04.587Z,11.46
2023-04-23T01:17:34.602Z,11.44
2023-04-23T01:20:02.847Z,11.42
2023-04-23T01:22:31.074Z,11.39
2023-04-23T01:24:59.150Z,11.36
2023-04-23T01:27:27.478Z,11.34
2023-04-23T01:29:55.833Z,11.31
2023-04-23T01:32:23.910Z,11.30
2023-04-23T01:34:51.906Z,11.29
2023-04-23T01:37:19.914Z,11.27
2023-04-23T01:39:48.074Z,11.24
2023-04-23T01:42:16.033Z,11.22
2023-04-23T01:44:44.232Z,11.19
2023-04-23T01:47:12.131Z,11.17
2023-04-23T01:49:40.128Z,11.14
2023-04-23T01:52:08.638Z,11.10
2023-04-23T01:54:37.014Z,11.08
2023-04-23T01:57:06.086Z,11.05
2023-04-23T01:59:34.679Z,11.04
2023-04-23T02:02:03.165Z,11.02
2023-04-23T02:04:31.797Z,11.01
2023-04-23T02:06:59.920Z,11.01
2023-04-23T02:09:27.928Z,11.00
2023-04-23T02:11:57.874Z,10.99
2023-04-23T02:14:26.196Z,10.97
2023-04-23T02:16:54.128Z,10.96
2023-04-23T02:19:22.429Z,10.92
2023-04-23T02:21:50.463Z,10.87
2023-04-23T02:24:18.713Z,10.83
2023-04-23T02:26:47.633Z,10.78
2023-04-23T02:29:16.890Z,10.77
2023-04-23T02:31:44.950Z,10.78
2023-04-23T02:34:12.862Z,10.80
2023-04-23T02:36:40.759Z,10.81
2023-04-23T02:39:09.135Z,10.81
2023-04-23T02:41:37.067Z,10.78
2023-04-23T02:44:05.043Z,10.77
2023-04-23T02:46:36.410Z,10.76
2023-04-23T02:49:05.051Z,10.74
2023-04-23T02:51:33.333Z,10.74
2023-04-23T02:54:01.435Z,10.74
2023-04-23T02:56:29.795Z,10.74
2023-04-23T02:58:57.750Z,10.74
2023-04-23T03:01:26.168Z,10.74
2023-04-23T03:03:54.778Z,10.72
2023-04-23T03:06:22.990Z,10.71
2023-04-23T03:08:51.178Z,10.70
2023-04-23T03:11:19.168Z,10.70
2023-04-23T03:13:47.767Z,10.68
2023-04-23T03:16:15.818Z,10.66
2023-04-23T03:18:43.722Z,10.65
2023-04-23T03:21:11.692Z,10.65
2023-04-23T03:23:39.640Z,10.65
2023-04-23T03:26:07.906Z,10.65
2023-04-23T03:28:36.099Z,10.62
2023-04-23T03:31:05.621Z,10.54
2023-04-23T03:33:34.120Z,10.48
2023-04-23T03:36:02.200Z,10.47
2023-04-23T03:38:31.941Z,10.48
2023-04-23T03:41:00.559Z,10.47
2023-04-23T03:43:28.722Z,10.49
2023-04-23T03:46:06.731Z,10.54
2023-04-23T03:48:38.507Z,10.60
2023-04-23T03:51:10.322Z,10.62
2023-04-23T03:53:44.823Z,10.62
2023-04-23T03:56:35.561Z,10.62
2023-04-23T03:59:36.104Z,10.65
2023-04-23T04:02:04.621Z,10.68
2023-04-23T04:04:33.986Z,10.71
2023-04-23T04:07:02.471Z,10.72
2023-04-23T04:09:30.436Z,10.75
2023-04-23T04:12:04.529Z,10.78
2023-04-23T04:14:32.694Z,10.83
2023-04-23T04:17:00.595Z,10.85
2023-04-23T04:19:28.601Z,10.86
2023-04-23T04:21:56.813Z,10.87
2023-04-23T04:24:26.331Z,10.88
2023-04-23T04:26:54.530Z,10.90
2023-04-23T04:29:24.090Z,10.93
2023-04-23T04:31:53.051Z,10.97
2023-04-23T04:34:21.411Z,11.00
2023-04-23T04:36:49.384Z,11.05
2023-04-23T04:39:18.087Z,11.10
2023-04-23T04:41:46.775Z,11.15
2023-04-23T04:44:16.659Z,11.21
2023-04-23T04:46:45.243Z,11.25
2023-04-23T04:49:13.289Z,11.30
2023-04-23T04:51:41.403Z,11.35
2023-04-23T04:54:09.365Z,11.39
2023-04-23T04:56:37.356Z,11.44
2023-04-23T04:59:05.371Z,11.49
2023-04-23T05:01:33.474Z,11.55
2023-04-23T05:04:01.845Z,11.60
2023-04-23T05:06:31.270Z,11.66
2023-04-23T05:08:59.226Z,11.71
2023-04-23T05:11:27.596Z,11.77
2023-04-23T05:13:56.797Z,11.84
2023-04-23T05:16:24.742Z,11.91
2023-04-23T05:18:52.665Z,11.97
2023-04-23T05:21:20.671Z,12.04
2023-04-23T05:23:49.972Z,12.10
2023-04-23T05:26:18.383Z,12.18
2023-04-23T05:28:46.506Z,12.25
2023-04-23T05:31:14.561Z,12.33
2023-04-23T05:33:49.982Z,12.40
2023-04-23T05:36:18.782Z,12.46
2023-04-23T05:38:47.886Z,12.52
2023-04-23T05:41:16.149Z,12.57
2023-04-23T05:43:44.265Z,12.62
2023-04-23T05:46:12.456Z,12.68
2023-04-23T05:48:41.298Z,12.74
2023-04-23T05:51:09.754Z,12.80
2023-04-23T05:53:38.107Z,12.86
2023-04-23T05:56:06.449Z,12.91
2023-04-23T05:58:35.321Z,12.99
2023-04-23T06:01:03.798Z,13.06
2023-04-23T06:03:32.210Z,13.16
2023-04-23T06:06:00.884Z,13.26
2023-04-23T06:08:29.493Z,13.37
2023-04-23T06:10:57.518Z,13.51
2023-04-23T06:13:26.723Z,13.65
2023-04-23T06:15:54.680Z,13.78
2023-04-23T06:18:23.965Z,13.91
2023-04-23T06:20:51.991Z,14.02
2023-04-23T06:23:19.936Z,14.11
2023-04-23T06:25:48.143Z,14.20
2023-04-23T06:28:17.425Z,14.31
2023-04-23T06:31:02.759Z,14.43
2023-04-23T06:33:30.910Z,14.57
2023-04-23T06:35:58.822Z,14.70
2023-04-23T06:38:26.719Z,14.84
2023-04-23T06:40:54.702Z,14.97
2023-04-23T06:43:23.143Z,15.09
2023-04-23T06:46:16.643Z,15.22
2023-04-23T06:48:44.873Z,15.35
2023-04-23T06:51:12.971Z,15.49
2023-04-23T06:53:40.967Z,15.60
2023-04-23T06:56:08.956Z,15.68
2023-04-23T06:58:37.661Z,15.75
2023-04-23T07:01:13.531Z,15.80
2023-04-23T07:03:45.171Z,15.87
2023-04-23T07:06:13.449Z,15.92
2023-04-23T07:08:42.849Z,15.95
2023-04-23T07:11:10.937Z,15.98
2023-04-23T07:13:39.170Z,16.03
2023-04-23T07:16:08.318Z,16.09
2023-04-23T07:18:36.608Z,16.14
2023-04-23T07:21:04.970Z,16.21
2023-04-23T07:23:33.139Z,16.26
2023-04-23T07:26:01.156Z,16.32
2023-04-23T07:28:30.307Z,16.35
2023-04-23T07:31:02.566Z,16.38
2023-04-23T07:33:31.180Z,16.41
2023-04-23T07:35:59.116Z,16.43
2023-04-23T07:38:27.081Z,16.47
2023-04-23T07:40:55.184Z,16.50
2023-04-23T07:43:23.343Z,16.55
2023-04-23T07:45:51.513Z,16.61
2023-04-23T07:48:19.691Z,16.66
2023-04-23T07:50:47.711Z,16.71
2023-04-23T07:53:15.928Z,16.75
2023-04-23T07:55:44.057Z,16.79
2023-04-23T07:58:12.260Z,16.82
2023-04-23T08:00:40.416Z,16.85
2023-04-23T08:03:09.157Z,16.89
2023-04-23T08:05:40.300Z,16.93
2023-04-23T08:08:08.905Z,16.99
2023-04-23T08:10:37.036Z,17.06
2023-04-23T08:13:05.647Z,17.13
2023-04-23T08:15:33.594Z,17.19
2023-04-23T08:18:01.858Z,17.24
2023-04-23T08:20:29.950Z,17.30
2023-04-23T08:22:58.277Z,17.36
2023-04-23T08:25:26.301Z,17.43
2023-04-23T08:27:54.249Z,17.50
2023-04-23T08:30:22.268Z,17.56
2023-04-23T08:32:51.434Z,17.63
2023-04-23T08:35:19.802Z,17.67
2023-04-23T08:37:47.824Z,17.73
2023-04-23T08:40:16.929Z,17.76
2023-04-23T08:42:47.977Z,17.80
2023-04-23T08:45:17.416Z,17.83
2023-04-23T08:47:45.762Z,17.85
2023-04-23T08:50:16.692Z,17.84
2023-04-23T08:52:51.020Z,17.89
2023-04-23T08:55:19.022Z,17.96
2023-04-23T08:57:47.037Z,18.00
2023-04-23T09:00:15.582Z,18.05
2023-04-23T09:02:44.455Z,18.07
2023-04-23T09:05:12.834Z,18.08
2023-04-23T09:07:42.527Z,18.11
2023-04-23T09:10:11.838Z,18.13
2023-04-23T09:12:43.415Z,18.07
2023-04-23T09:15:12.636Z,18.00
2023-04-23T09:17:43.976Z,18.01
2023-04-23T09:20:12.590Z,18.09
2023-04-23T09:22:47.901Z,18.18
2023-04-23T09:25:18.044Z,18.23
2023-04-23T09:27:46.862Z,18.24
2023-04-23T09:30:15.110Z,18.27
2023-04-23T09:32:43.557Z,18.38
2023-04-23T09:35:15.564Z,18.50
2023-04-23T09:37:45.122Z,18.59
2023-04-23T09:40:13.388Z,18.70
2023-04-23T09:42:41.476Z,18.77
2023-04-23T09:45:11.342Z,18.83
2023-04-23T09:47:39.867Z,18.93
2023-04-23T09:50:10.689Z,19.06
2023-04-23T09:52:38.891Z,19.21
2023-04-23T09:55:07.135Z,19.26
2023-04-23T09:57:38.685Z,19.23
2023-04-23T10:00:33.403Z,19.29
2023-04-23T10:03:02.020Z,19.37
2023-04-23T10:05:40.768Z,19.32
2023-04-23T10:08:18.369Z,19.18
2023-04-23T10:11:02.462Z,19.24
2023-04-23T10:13:35.826Z,19.27
2023-04-23T10:16:18.114Z,19.31
2023-04-23T10:18:51.125Z,19.35
2023-04-23T10:21:19.415Z,19.31
2023-04-23T10:23:47.509Z,19.34
2023-04-23T10:26:16.349Z,19.46
2023-04-23T10:28:47.975Z,19.59
2023-04-23T10:31:16.742Z,19.76
2023-04-23T10:33:55.964Z,19.87
2023-04-23T10:36:28.280Z,19.95
2023-04-23T10:39:00.291Z,20.06
2023-04-23T10:41:32.372Z,20.16
2023-04-23T10:44:00.472Z,20.24
2023-04-23T10:46:29.701Z,20.25
2023-04-23T10:49:10.302Z,20.27
2023-04-23T10:54:15.935Z,20.51
2023-04-23T10:56:44.005Z,20.60
2023-04-23T10:59:18.845Z,20.62
2023-04-23T11:01:48.760Z,20.61
2023-04-23T11:04:23.755Z,20.53
2023-04-23T11:06:53.314Z,20.55
2023-04-23T11:09:31.031Z,20.56
2023-04-23T11:11:59.499Z,20.64
2023-04-23T11:14:37.546Z,20.67
2023-04-23T11:17:06.869Z,20.71
2023-04-23T11:19:35.724Z,20.70
2023-04-23T11:22:08.538Z,20.71
2023-04-23T11:24:37.593Z,20.63
2023-04-23T11:27:06.402Z,20.49
2023-04-23T11:29:35.054Z,20.43
2023-04-23T11:32:05.640Z,20.47
2023-04-23T11:34:35.225Z,20.51
2023-04-23T11:37:03.324Z,20.67
2023-04-23T11:39:33.818Z,20.83
2023-04-23T11:42:08.174Z,20.92
2023-04-23T11:44:38.369Z,20.97
2023-04-23T11:47:07.326Z,21.01
2023-04-23T11:49:37.972Z,21.03
2023-04-23T11:52:06.144Z,21.02
2023-04-23T11:54:34.991Z,20.94
2023-04-23T11:57:04.753Z,20.84
2023-04-23T11:59:33.082Z,20.90
2023-04-23T12:02:01.079Z,20.90
2023-04-23T12:04:32.227Z,20.77
2023-04-23T12:07:00.260Z,20.66
2023-04-23T12:09:29.664Z,20.69
2023-04-23T12:11:58.851Z,20.79
2023-04-23T12:18:11.170Z,20.83
2023-04-23T12:20:40.675Z,21.00
2023-04-23T12:23:09.096Z,21.10
2023-04-23T12:25:37.586Z,21.24
2023-04-23T12:28:06.998Z,21.41
2023-04-23T12:30:35.709Z,21.29
2023-04-23T12:33:04.437Z,21.27
2023-04-23T12:35:42.313Z,21.38
2023-04-23T12:38:26.856Z,21.48
2023-04-23T12:40:55.586Z,21.51
2023-04-23T12:43:24.679Z,21.53
2023-04-23T12:45:53.009Z,21.60
2023-04-23T12:48:21.321Z,21.70
2023-04-23T12:50:50.441Z,21.79
2023-04-23T12:53:18.566Z,21.88
2023-04-23T12:55:50.282Z,22.02
2023-04-23T12:58:18.286Z,22.12
2023-04-23T13:00:46.487Z,22.21
2023-04-23T13:03:15.792Z,22.24
2023-04-23T13:05:44.145Z,22.29
2023-04-23T13:08:12.120Z,22.24
2023-04-23T13:10:40.184Z,22.26
2023-04-23T13:13:08.194Z,22.29
2023-04-23T13:15:36.698Z,22.30
2023-04-23T13:18:04.840Z,22.18
2023-04-23T13:20:33.670Z,22.17
2023-04-23T13:23:03.465Z,22.29
2023-04-23T13:25:31.815Z,22.40
2023-04-23T13:28:00.164Z,22.44
2023-04-23T13:30:29.126Z,22.50
2023-04-23T13:32:59.275Z,22.58
2023-04-23T13:35:27.534Z,22.58
2023-04-23T13:37:55.825Z,22.64
2023-04-23T13:40:23.725Z,22.78
2023-04-23T13:42:53.332Z,22.80
2023-04-23T13:45:21.350Z,22.67
2023-04-23T13:47:49.263Z,22.50
2023-04-23T13:50:17.694Z,22.32
2023-04-23T13:52:45.794Z,22.18
2023-04-23T13:55:13.887Z,22.09
2023-04-23T13:57:42.152Z,22.06
2023-04-23T14:00:10.289Z,21.97
2023-04-23T14:02:39.155Z,21.75
2023-04-23T14:05:09.200Z,21.45
2023-04-23T14:07:37.459Z,21.12
2023-04-23T14:10:06.104Z,20.91
2023-04-23T14:12:37.469Z,20.78
2023-04-23T14:15:06.413Z,20.77
2023-04-23T14:17:34.963Z,20.92
2023-04-23T14:20:05.882Z,21.01
2023-04-23T14:22:34.187Z,20.89
2023-04-23T14:25:03.364Z,20.71
2023-04-23T14:27:33.004Z,20.56
2023-04-23T14:30:05.222Z,20.38
2023-04-23T14:32:33.732Z,20.22
2023-04-23T14:35:03.564Z,20.13
2023-04-23T14:37:30.395Z,20.01
2023-04-23T14:39:57.284Z,19.89
2023-04-23T14:42:25.080Z,19.84
2023-04-23T14:44:56.733Z,19.77
2023-04-23T14:47:23.623Z,19.68
2023-04-23T14:49:51.451Z,19.67
2023-04-23T14:52:18.411Z,19.69
2023-04-23T14:54:45.331Z,19.65
2023-04-23T14:57:12.105Z,19.61
2023-04-23T14:59:38.935Z,19.55
2023-04-23T15:02:05.878Z,19.52
2023-04-23T15:04:33.547Z,19.50
2023-04-23T15:07:00.615Z,19.48
2023-04-23T15:09:27.344Z,19.45
2023-04-23T15:11:54.865Z,19.42
2023-04-23T15:14:25.576Z,19.39
2023-04-23T15:16:52.596Z,19.35
2023-04-23T15:19:20.250Z,19.32
2023-04-23T15:21:47.690Z,19.31
2023-04-23T15:24:15.161Z,19.29
2023-04-23T15:26:42.352Z,19.25
2023-04-23T15:29:10.277Z,19.22
2023-04-23T15:31:37.907Z,19.19
2023-04-23T15:34:07.326Z,19.15
2023-04-23T15:36:35.601Z,19.10
2023-04-23T15:39:02.392Z,19.06
2023-04-23T15:41:29.243Z,19.01
2023-04-23T15:43:56.784Z,18.96
2023-04-23T15:46:23.567Z,18.92
2023-04-23T15:48:50.395Z,18.91
2023-04-23T15:51:17.211Z,18.91
2023-04-23T15:54:01.397Z,18.91
2023-04-23T15:56:28.704Z,18.85
2023-04-23T15:58:55.552Z,18.82
2023-04-23T16:01:24.205Z,18.77
2023-04-23T16:04:08.712Z,18.72
2023-04-23T16:06:37.427Z,18.67
2023-04-23T16:09:08.428Z,18.64
2023-04-23T16:11:36.127Z,18.67
2023-04-23T16:14:03.094Z,18.75
2023-04-23T16:16:30.934Z,18.77
2023-04-23T16:18:57.914Z,18.81
2023-04-23T16:21:25.405Z,18.88
2023-04-23T16:23:53.056Z,18.91
2023-04-23T16:26:19.978Z,18.92
2023-04-23T16:28:51.851Z,18.93
2023-04-23T16:31:28.393Z,18.92
2023-04-23T16:33:55.283Z,18.90
2023-04-23T16:36:22.081Z,18.80
2023-04-23T16:38:50.010Z,18.77
2023-04-23T16:41:19.312Z,18.67
2023-04-23T16:43:49.272Z,18.55
2023-04-23T16:46:16.097Z,18.45
2023-04-23T16:48:43.554Z,18.41
2023-04-23T16:51:10.443Z,18.38
2023-04-23T16:53:37.226Z,18.34
2023-04-23T16:56:04.780Z,18.27
2023-04-23T16:58:31.732Z,18.17
2023-04-23T17:00:59.174Z,18.14
2023-04-23T17:03:26.187Z,18.09
2023-04-23T17:05:55.854Z,18.01
2023-04-23T17:08:24.726Z,17.96
2023-04-23T17:10:52.419Z,17.90
2023-04-23T17:13:19.176Z,17.85
2023-04-23T17:15:46.264Z,17.78
2023-04-23T17:18:13.092Z,17.71
2023-04-23T17:20:40.068Z,17.62
2023-04-23T17:23:06.798Z,17.56
2023-04-23T17:25:34.640Z,17.50
2023-04-23T17:28:01.970Z,17.41
2023-04-23T17:30:28.997Z,17.35
2023-04-23T17:32:55.861Z,17.30
2023-04-23T17:35:24.532Z,17.25
2023-04-23T17:37:52.094Z,17.20
2023-04-23T17:40:20.076Z,17.17
2023-04-23T17:42:47.130Z,17.13
2023-04-23T17:45:14.963Z,17.08
2023-04-23T17:47:42.844Z,17.03
2023-04-23T17:50:12.180Z,16.92
2023-04-23T17:52:41.265Z,16.81
2023-04-23T17:55:09.824Z,16.73
2023-04-23T17:57:37.453Z,16.66
2023-04-23T18:00:10.011Z,16.61
2023-04-23T18:02:40.585Z,16.54
2023-04-23T18:05:08.521Z,16.47
2023-04-23T18:07:36.382Z,16.42
2023-04-23T18:10:03.998Z,16.35
2023-04-23T18:12:31.294Z,16.29
2023-04-23T18:14:58.319Z,16.24
2023-04-23T18:17:26.168Z,16.19
2023-04-23T18:19:54.206Z,16.12
2023-04-23T18:22:24.165Z,16.06
2023-04-23T18:24:51.061Z,16.01
2023-04-23T18:27:17.985Z,15.95
2023-04-23T18:29:45.355Z,15.90
2023-04-23T18:32:20.980Z,15.85
2023-04-23T18:34:54.784Z,15.78
2023-04-23T18:37:36.853Z,15.72
2023-04-23T18:40:04.591Z,15.65
2023-04-23T18:42:41.852Z,15.58
2023-04-23T18:45:11.768Z,15.52
2023-04-23T18:47:44.339Z,15.38
2023-04-23T18:50:29.052Z,15.28
2023-04-23T18:52:56.014Z,15.17
2023-04-23T18:55:27.455Z,15.11
2023-04-23T18:57:59.364Z,15.09
2023-04-23T19:00:26.252Z,15.05
2023-04-23T19:02:53.108Z,15.00
2023-04-23T19:05:20.162Z,14.92
2023-04-23T19:07:50.820Z,14.81
2023-04-23T19:10:17.677Z,14.73
2023-04-23T19:12:45.622Z,14.68
2023-04-23T19:15:14.317Z,14.64
2023-04-23T19:17:41.194Z,14.59
2023-04-23T19:20:11.080Z,14.56
2023-04-23T19:22:39.457Z,14.53
2023-04-23T19:25:08.521Z,14.50
2023-04-23T19:27:36.120Z,14.47
2023-04-23T19:30:05.026Z,14.41
2023-04-23T19:32:33.760Z,14.32
2023-04-23T19:35:00.712Z,14.22
2023-04-23T19:37:27.627Z,14.14
2023-04-23T19:39:54.469Z,14.08
2023-04-23T19:42:21.789Z,13.99
2023-04-23T19:44:49.725Z,13.94
2023-04-23T19:47:17.034Z,13.90
2023-04-23T19:49:45.957Z,13.86
2023-04-23T19:52:14.275Z,13.83
2023-04-23T19:54:43.051Z,13.80
2023-04-23T19:57:09.905Z,13.77
2023-04-23T19:59:37.140Z,13.74
2023-04-23T20:02:03.902Z,13.71
2023-04-23T20:04:31.003Z,13.68
2023-04-23T20:06:57.904Z,13.66
2023-04-23T20:09:25.648Z,13.63
2023-04-23T20:11:52.802Z,13.61
2023-04-23T20:14:19.611Z,13.58
2023-04-23T20:16:50.609Z,13.55
2023-04-23T20:19:17.446Z,13.53
2023-04-23T20:21:45.716Z,13.50
2023-04-23T20:24:13.033Z,13.49
2023-04-23T20:26:40.466Z,13.48
2023-04-23T20:29:07.392Z,13.45
2023-04-23T20:31:34.346Z,13.44
2023-04-23T20:34:01.276Z,13.42
2023-04-23T20:36:34.199Z,13.41
2023-04-23T20:39:03.361Z,13.39
2023-04-23T20:41:30.888Z,13.38
2023-04-23T20:43:58.387Z,13.37
2023-04-23T20:46:25.876Z,13.35
2023-04-23T20:48:55.765Z,13.35
2023-04-23T20:51:23.062Z,13.35
2023-04-23T20:53:51.546Z,13.34
2023-04-23T20:56:21.652Z,13.33
2023-04-23T20:58:48.452Z,13.32
2023-04-23T21:01:15.591Z,13.31
2023-04-23T21:03:42.464Z,13.30
2023-04-23T21:06:10.032Z,13.28
2023-04-23T21:08:42.605Z,13.25
2023-04-23T21:11:18.914Z,13.22
2023-04-23T21:13:46.109Z,13.18
2023-04-23T21:16:13.046Z,13.14
2023-04-23T21:18:40.052Z,13.11
2023-04-23T21:21:07.601Z,13.07
2023-04-23T21:23:34.348Z,13.06
2023-04-23T21:26:01.111Z,13.04
2023-04-23T21:28:27.949Z,13.02
2023-04-23T21:30:55.122Z,12.99
2023-04-23T21:33:22.637Z,12.98
2023-04-23T21:35:50.750Z,12.96
2023-04-23T21:38:17.818Z,12.96
2023-04-23T21:40:44.945Z,12.96
2023-04-23T21:43:11.823Z,12.95
2023-04-23T21:45:38.666Z,12.94
2023-04-23T21:48:05.992Z,12.93
2023-04-23T21:50:32.993Z,12.90
2023-04-23T21:52:59.855Z,12.88
2023-04-23T21:55:26.907Z,12.86
2023-04-23T21:57:54.981Z,12.83
2023-04-23T22:00:23.824Z,12.81
2023-04-23T22:02:50.649Z,12.78
2023-04-23T22:05:20.875Z,12.74
2023-04-23T22:07:47.960Z,12.72
2023-04-23T22:10:15.322Z,12.70
2023-04-23T22:12:42.631Z,12.68
2023-04-23T22:15:10.500Z,12.66
2023-04-23T22:17:38.448Z,12.63
2023-04-23T22:20:06.771Z,12.60
2023-04-23T22:22:36.717Z,12.57
2023-04-23T22:25:06.218Z,12.49
2023-04-23T22:27:34.680Z,12.43
2023-04-23T22:30:01.787Z,12.37
2023-04-23T22:32:29.283Z,12.32
2023-04-23T22:34:56.154Z,12.29
2023-04-23T22:37:22.978Z,12.27
2023-04-23T22:39:49.755Z,12.24
2023-04-23T22:42:16.545Z,12.23
2023-04-23T22:44:43.410Z,12.22
2023-04-23T22:47:10.270Z,12.21
2023-04-23T22:49:36.992Z,12.20
2023-04-23T22:52:03.766Z,12.19
2023-04-23T22:54:30.565Z,12.19
2023-04-23T22:56:57.344Z,12.18
2023-04-23T22:59:24.726Z,12.16
2023-04-23T23:01:51.913Z,12.15
2023-04-23T23:04:18.856Z,12.13
2023-04-23T23:06:46.378Z,12.08
2023-04-23T23:09:13.261Z,12.04
2023-04-23T23:11:40.166Z,12.01
2023-04-23T23:14:06.982Z,11.99
2023-04-23T23:16:34.045Z,11.97
2023-04-23T23:19:00.884Z,11.96
2023-04-23T23:21:27.699Z,11.94
2023-04-23T23:23:54.535Z,11.93
2023-04-23T23:26:21.512Z,11.93
2023-04-23T23:28:48.305Z,11.94
2023-04-23T23:31:15.275Z,11.97
2023-04-23T23:33:42.180Z,12.00
2023-04-23T23:36:09.073Z,12.05
2023-04-23T23:38:35.902Z,12.09
2023-04-23T23:41:02.749Z,12.11
2023-04-23T23:43:30.496Z,12.12
2023-04-23T23:45:57.417Z,12.05
2023-04-23T23:48:24.199Z,11.91
2023-04-23T23:50:51.063Z,11.84
2023-04-23T23:53:17.954Z,11.83
2023-04-23T23:55:44.785Z,11.86
2023-04-23T23:58:11.649Z,11.90
